Time;durP1;ratioP1;P1;durP2;ratioP2;P2;SDS_P1;SDS_P2;PMS_P1;PMS_P2;Temp;Humidity;BMP_temperature;BMP_pressure;BME280_temperature;BME280_humidity;BME280_pressure;Samples;Min_cycle;Max_cycle;Signal;HPM_P1;HPM_P2
2023/07/02 00:00:05;;;;;;;9.70;5.63;;;538.50;2406.40;;;;;;5086563;28;20020;-71
2023/07/02 00:02:31;;;;;;;10.77;6.68;;;538.50;2406.40;;;;;;5080180;28;20028;-70
2023/07/02 00:04:56;;;;;;;11.00;6.43;;;538.40;2406.40;;;;;;5077352;28;20478;-72
2023/07/02 00:07:22;;;;;;;11.70;6.18;;;538.50;2406.40;;;;;;5077866;28;20378;-72
2023/07/02 00:09:48;;;;;;;11.25;5.90;;;563.20;2432.00;;;;;;5079693;28;20016;-71
2023/07/02 00:12:14;;;;;;;9.55;6.18;;;563.20;2432.00;;;;;;5077183;28;20086;-71
2023/07/02 00:14:39;;;;;;;10.27;6.55;;;563.20;2432.00;;;;;;5083405;28;20532;-72
2023/07/02 00:17:06;;;;;;;10.45;5.68;;;563.30;2432.00;;;;;;5077848;28;20386;-73
2023/07/02 00:19:31;;;;;;;12.35;6.03;;;563.20;2432.00;;;;;;5078965;28;20420;-72
2023/07/02 00:21:58;;;;;;;11.15;5.72;;;563.30;2432.00;;;;;;5082862;28;20016;-71
2023/07/02 00:24:23;;;;;;;9.75;6.43;;;563.30;2432.00;;;;;;5075739;28;20025;-72
2023/07/02 00:26:49;;;;;;;11.13;6.10;;;563.30;2432.00;;;;;;5076684;28;20394;-71
2023/07/02 00:29:15;;;;;;;11.63;6.07;;;563.40;2432.00;;;;;;5074878;28;20467;-72
2023/07/02 00:31:41;;;;;;;14.05;7.60;;;563.40;2432.00;;;;;;5075300;28;20032;-71
2023/07/02 00:34:06;;;;;;;10.63;6.43;;;563.50;2432.00;;;;;;5094862;28;20052;-72
2023/07/02 00:36:32;;;;;;;10.73;6.25;;;563.50;2432.00;;;;;;5086485;28;20105;-71
2023/07/02 00:38:58;;;;;;;11.70;6.15;;;563.40;2432.00;;;;;;5073136;28;20021;-72
2023/07/02 00:41:25;;;;;;;10.48;5.80;;;563.30;2432.00;;;;;;5073193;28;20381;-74
2023/07/02 00:43:54;;;;;;;7.88;5.55;;;538.50;2406.40;;;;;;5072963;28;20032;-73
2023/07/02 00:46:21;;;;;;;10.55;5.82;;;538.50;2406.40;;;;;;5073376;28;20541;-71
2023/07/02 00:48:56;;;;;;;8.93;5.53;;;538.40;2406.40;;;;;;5072991;28;20107;-72
2023/07/02 00:51:24;;;;;;;13.23;7.10;;;538.40;2406.40;;;;;;5070779;28;20074;-73
2023/07/02 00:53:52;;;;;;;9.20;6.25;;;538.30;2406.40;;;;;;5072681;28;20052;-72
2023/07/02 00:56:18;;;;;;;12.07;6.85;;;538.20;2406.40;;;;;;5072134;28;20044;-72
2023/07/02 00:58:48;;;;;;;11.85;6.40;;;538.00;2406.40;;;;;;5072869;28;20034;-72
2023/07/02 01:01:17;;;;;;;10.98;5.80;;;538.00;2406.40;;;;;;5071936;28;20017;-71
2023/07/02 01:03:59;;;;;;;12.98;6.88;;;538.00;2406.40;;;;;;5070081;28;20020;-73
2023/07/02 01:06:26;;;;;;;11.45;7.57;;;538.10;2406.40;;;;;;5070043;28;20024;-71
2023/07/02 01:08:58;;;;;;;11.80;6.25;;;538.00;2406.40;;;;;;5072561;28;20036;-82
2023/07/02 01:11:31;;;;;;;10.93;6.53;;;538.00;2406.40;;;;;;5070577;28;20027;-72
2023/07/02 01:14:13;;;;;;;11.00;6.45;;;537.90;2406.40;;;;;;5071747;28;20071;-72
2023/07/02 01:16:43;;;;;;;11.77;6.85;;;537.90;2406.40;;;;;;5072081;28;20021;-71
2023/07/02 01:19:21;;;;;;;13.93;6.97;;;537.70;2406.40;;;;;;5070420;28;20024;-71
2023/07/02 01:21:48;;;;;;;16.85;7.38;;;537.90;2406.40;;;;;;5071722;28;20051;-73
2023/07/02 01:24:15;;;;;;;14.55;7.45;;;537.90;2406.40;;;;;;5072241;28;20024;-73
2023/07/02 01:26:41;;;;;;;11.02;6.85;;;538.00;2406.40;;;;;;5072397;28;20474;-76
2023/07/02 01:29:36;;;;;;;12.30;6.85;;;537.90;2406.40;;;;;;5072277;28;20389;-73
2023/07/02 01:32:02;;;;;;;10.70;6.28;;;538.00;2406.40;;;;;;5070304;28;20036;-74
2023/07/02 01:34:28;;;;;;;11.93;7.03;;;538.10;2406.40;;;;;;5072029;28;20027;-74
2023/07/02 01:36:54;;;;;;;10.30;6.78;;;538.20;2406.40;;;;;;5071216;28;20050;-73
2023/07/02 01:39:20;;;;;;;10.52;6.30;;;538.30;2406.40;;;;;;5072229;28;20477;-74
2023/07/02 01:41:52;;;;;;;23.02;7.03;;;538.40;2406.40;;;;;;5071323;28;20045;-73
2023/07/02 01:44:19;;;;;;;13.38;7.28;;;538.50;2406.40;;;;;;5071084;28;20017;-81
2023/07/02 01:46:48;;;;;;;14.95;7.22;;;538.50;2406.40;;;;;;5072117;28;20077;-72
2023/07/02 01:49:18;;;;;;;12.80;7.97;;;538.50;2406.40;;;;;;5072045;28;20104;-72
2023/07/02 01:51:54;;;;;;;14.68;8.15;;;538.30;2406.40;;;;;;5071912;28;20043;-74
2023/07/02 01:54:21;;;;;;;12.30;7.43;;;538.30;2406.40;;;;;;5071757;28;20023;-73
2023/07/02 01:56:47;;;;;;;15.38;7.28;;;538.20;2406.40;;;;;;5071231;28;20089;-72
2023/07/02 01:59:14;;;;;;;16.25;7.50;;;538.00;2406.40;;;;;;5072255;28;20099;-71
2023/07/02 02:01:40;;;;;;;11.98;6.90;;;537.90;2406.40;;;;;;5072156;28;20485;-71
2023/07/02 02:04:10;;;;;;;10.93;6.75;;;537.90;2406.40;;;;;;5072022;28;20032;-73
2023/07/02 02:06:37;;;;;;;12.38;6.60;;;537.90;2406.40;;;;;;5071846;28;20154;-73
2023/07/02 02:09:04;;;;;;;13.25;7.90;;;538.00;2406.40;;;;;;5071606;28;20095;-74
2023/07/02 02:11:30;;;;;;;14.48;7.90;;;538.10;2406.40;;;;;;5072158;28;20017;-71
2023/07/02 02:13:57;;;;;;;12.00;7.35;;;538.10;2406.40;;;;;;5071675;28;20135;-71
2023/07/02 02:16:23;;;;;;;11.57;6.72;;;538.10;2406.40;;;;;;5071543;28;20486;-72
2023/07/02 02:18:52;;;;;;;14.57;7.18;;;538.10;2406.40;;;;;;5072132;28;20070;-71
2023/07/02 02:21:19;;;;;;;13.95;7.95;;;538.00;2406.40;;;;;;5059519;28;20017;-73
2023/07/02 02:23:45;;;;;;;13.77;7.45;;;538.00;2406.40;;;;;;5071498;28;20021;-72
2023/07/02 02:26:11;;;;;;;13.68;7.05;;;538.00;2406.40;;;;;;5071688;28;20099;-71
2023/07/02 02:28:36;;;;;;;11.32;6.78;;;538.00;2406.40;;;;;;5071545;28;20048;-71
2023/07/02 02:31:02;;;;;;;11.90;7.10;;;538.00;2406.40;;;;;;5072264;28;20474;-72
2023/07/02 02:33:28;;;;;;;11.48;6.97;;;538.10;2406.40;;;;;;5071394;28;20029;-72
2023/07/02 02:35:54;;;;;;;13.25;7.85;;;538.20;2406.40;;;;;;5071351;28;20039;-71
2023/07/02 02:38:20;;;;;;;11.82;7.28;;;538.20;2406.40;;;;;;5071551;28;20085;-71
2023/07/02 02:40:45;;;;;;;11.10;6.75;;;538.20;2406.40;;;;;;5071758;28;20454;-71
2023/07/02 02:43:11;;;;;;;11.57;6.95;;;538.20;2406.40;;;;;;5071613;28;20021;-72
2023/07/02 02:45:36;;;;;;;11.85;7.38;;;538.20;2406.40;;;;;;5071373;28;20025;-71
2023/07/02 02:48:02;;;;;;;14.10;7.65;;;538.10;2406.40;;;;;;5073772;28;20028;-82
2023/07/02 02:50:28;;;;;;;17.60;7.43;;;538.00;2406.40;;;;;;5075114;28;20025;-71
2023/07/02 02:52:54;;;;;;;11.63;7.82;;;538.10;2406.40;;;;;;5075048;28;20028;-71
2023/07/02 02:55:19;;;;;;;10.73;6.93;;;538.10;2406.40;;;;;;5075307;28;20444;-72
2023/07/02 02:57:45;;;;;;;13.90;8.45;;;538.10;2406.40;;;;;;5075091;28;20032;-72
2023/07/02 03:00:11;;;;;;;16.10;8.38;;;538.00;2406.40;;;;;;5075364;28;20167;-74
2023/07/02 03:02:38;;;;;;;12.80;7.28;;;538.00;2406.40;;;;;;5074452;28;20034;-71
2023/07/02 03:05:06;;;;;;;15.60;7.43;;;537.90;2406.40;;;;;;5074327;28;20025;-72
2023/07/02 03:07:32;;;;;;;11.85;7.68;;;537.80;2406.40;;;;;;5071841;28;20107;-71
2023/07/02 03:09:58;;;;;;;17.42;8.20;;;537.90;2406.40;;;;;;5074543;28;20099;-72
2023/07/02 03:12:26;;;;;;;15.32;7.68;;;538.00;2406.40;;;;;;5074268;28;20020;-72
2023/07/02 03:14:54;;;;;;;13.73;7.30;;;538.20;2406.40;;;;;;5074047;28;20017;-72
2023/07/02 03:17:23;;;;;;;12.52;8.18;;;538.30;2406.40;;;;;;5074532;28;20111;-72
2023/07/02 03:19:49;;;;;;;12.35;7.32;;;538.30;2406.40;;;;;;5074136;28;20417;-72
2023/07/02 03:22:15;;;;;;;11.48;7.85;;;538.50;2406.40;;;;;;5074444;28;20016;-71
2023/07/02 03:24:41;;;;;;;16.15;7.93;;;538.50;2406.40;;;;;;5073944;28;20028;-71
2023/07/02 03:27:07;;;;;;;12.90;7.78;;;538.50;2406.40;;;;;;5074037;28;21027;-72
2023/07/02 03:29:34;;;;;;;13.27;7.57;;;538.50;2406.40;;;;;;5071842;28;20017;-71
2023/07/02 03:32:00;;;;;;;11.77;7.30;;;538.40;2406.40;;;;;;5073942;28;20046;-72
2023/07/02 03:34:26;;;;;;;12.73;8.00;;;538.50;2406.40;;;;;;5073966;28;20024;-72
2023/07/02 03:36:52;;;;;;;12.60;8.00;;;538.50;2406.40;;;;;;5073520;28;20032;-71
2023/07/02 03:39:17;;;;;;;12.18;7.65;;;563.30;2432.00;;;;;;5072558;28;20538;-72
2023/07/02 03:41:44;;;;;;;13.10;8.30;;;563.40;2432.00;;;;;;5073661;28;20016;-71
2023/07/02 03:44:10;;;;;;;14.85;7.90;;;563.40;2432.00;;;;;;5073968;28;20017;-71
2023/07/02 03:46:36;;;;;;;13.18;7.43;;;563.40;2432.00;;;;;;5060619;28;20378;-72
2023/07/02 03:49:03;;;;;;;18.88;9.07;;;563.50;2432.00;;;;;;5073645;28;20025;-72
2023/07/02 03:51:29;;;;;;;14.85;8.70;;;563.50;2432.00;;;;;;5072816;28;20025;-72
2023/07/02 03:53:54;;;;;;;13.88;8.35;;;563.60;2432.00;;;;;;5073600;28;20161;-72
2023/07/02 03:56:20;;;;;;;15.23;9.48;;;563.60;2432.00;;;;;;5073486;28;20098;-72
2023/07/02 03:58:46;;;;;;;12.98;8.20;;;563.60;2432.00;;;;;;5072685;28;20025;-71
2023/07/02 04:01:12;;;;;;;16.35;9.13;;;563.60;2432.00;;;;;;5073189;28;20523;-71
2023/07/02 04:03:38;;;;;;;13.77;8.73;;;563.60;2432.00;;;;;;5073426;28;20017;-72
2023/07/02 04:06:07;;;;;;;13.10;9.15;;;563.60;2432.00;;;;;;5073588;28;20381;-71
2023/07/02 04:08:32;;;;;;;13.85;9.90;;;563.60;2432.00;;;;;;5073091;28;20085;-72
2023/07/02 04:10:58;;;;;;;13.82;9.45;;;563.70;2432.00;;;;;;5073253;28;20032;-72
2023/07/02 04:13:24;;;;;;;13.50;9.15;;;563.70;2432.00;;;;;;5073030;28;20025;-73
2023/07/02 04:15:50;;;;;;;11.43;8.38;;;563.70;2432.00;;;;;;5073003;28;20063;-73
2023/07/02 04:18:16;;;;;;;16.65;9.68;;;563.70;2432.00;;;;;;5073732;28;20020;-73
2023/07/02 04:20:41;;;;;;;12.32;9.10;;;563.70;2432.00;;;;;;5073376;28;20032;-71
2023/07/02 04:23:07;;;;;;;15.57;9.55;;;563.70;2432.00;;;;;;5072878;28;20028;-72
2023/07/02 04:25:33;;;;;;;11.60;7.97;;;563.60;2432.00;;;;;;5072570;28;20031;-71
2023/07/02 04:27:59;;;;;;;13.50;8.88;;;563.60;2432.00;;;;;;5072905;28;20032;-73
2023/07/02 04:30:25;;;;;;;13.13;9.32;;;563.60;2432.00;;;;;;5073200;28;20073;-72
2023/07/02 04:32:51;;;;;;;12.45;8.70;;;563.60;2432.00;;;;;;5073430;28;20033;-72
2023/07/02 04:35:17;;;;;;;15.60;9.35;;;563.40;2432.00;;;;;;5072989;28;20107;-73
2023/07/02 04:37:43;;;;;;;12.30;8.45;;;563.60;2432.00;;;;;;5072642;28;20024;-73
2023/07/02 04:40:10;;;;;;;13.35;9.65;;;563.60;2432.00;;;;;;5072680;28;20017;-72
2023/07/02 04:42:41;;;;;;;15.52;9.40;;;563.60;2432.00;;;;;;5072959;28;20025;-71
2023/07/02 04:45:08;;;;;;;12.95;9.05;;;563.50;2432.00;;;;;;5072514;28;20378;-71
2023/07/02 04:47:34;;;;;;;16.88;9.73;;;563.60;2432.00;;;;;;5072306;28;20103;-71
2023/07/02 04:50:00;;;;;;;13.82;9.13;;;563.50;2432.00;;;;;;5072376;28;20518;-71
2023/07/02 04:52:26;;;;;;;12.98;9.60;;;563.60;2432.00;;;;;;5072773;28;20040;-73
2023/07/02 04:54:52;;;;;;;12.48;9.35;;;563.60;2432.00;;;;;;5072119;28;20375;-72
2023/07/02 04:57:18;;;;;;;13.18;9.45;;;563.60;2432.00;;;;;;5072192;28;20032;-72
2023/07/02 04:59:44;;;;;;;13.80;9.57;;;563.60;2432.00;;;;;;5072271;28;20483;-72
2023/07/02 05:02:10;;;;;;;14.98;9.25;;;563.50;2432.00;;;;;;5070692;28;20063;-71
2023/07/02 05:04:39;;;;;;;15.75;9.85;;;563.60;2432.00;;;;;;5072099;28;20017;-72
2023/07/02 05:07:05;;;;;;;13.70;8.73;;;563.80;2432.00;;;;;;5071559;28;20504;-71
2023/07/02 05:09:31;;;;;;;18.33;10.23;;;563.60;2432.00;;;;;;5071979;28;20107;-72
2023/07/02 05:11:58;;;;;;;12.60;9.23;;;563.60;2432.00;;;;;;5070180;28;20039;-71
2023/07/02 05:14:23;;;;;;;15.77;9.82;;;563.60;2432.00;;;;;;5072271;28;20111;-71
2023/07/02 05:16:49;;;;;;;15.30;9.38;;;563.60;2432.00;;;;;;5072345;28;20419;-72
2023/07/02 05:19:15;;;;;;;15.65;9.43;;;563.50;2432.00;;;;;;5072085;28;20029;-73
2023/07/02 05:21:41;;;;;;;16.65;9.98;;;563.50;2432.00;;;;;;5070472;28;20029;-71
2023/07/02 05:24:08;;;;;;;17.00;10.10;;;563.60;2432.00;;;;;;5069637;28;20032;-73
2023/07/02 05:26:35;;;;;;;17.42;10.23;;;563.70;2432.00;;;;;;5072274;28;20024;-73
2023/07/02 05:29:01;;;;;;;13.73;9.82;;;563.60;2432.00;;;;;;5071830;28;20025;-72
2023/07/02 05:31:26;;;;;;;17.23;10.40;;;563.60;2432.00;;;;;;5071677;28;20107;-73
2023/07/02 05:33:53;;;;;;;15.75;9.60;;;563.70;2432.00;;;;;;5071947;28;20107;-72
2023/07/02 05:36:19;;;;;;;15.05;9.75;;;563.90;2432.00;;;;;;5071527;28;20477;-72
2023/07/02 05:38:45;;;;;;;15.70;9.93;;;563.90;2432.00;;;;;;5071951;28;20024;-72
2023/07/02 05:41:11;;;;;;;14.90;9.93;;;563.90;2432.00;;;;;;5071641;28;20058;-72
2023/07/02 05:43:36;;;;;;;16.35;10.18;;;563.70;2432.00;;;;;;5070861;28;20060;-71
2023/07/02 05:46:02;;;;;;;15.13;10.20;;;563.90;2432.00;;;;;;5071457;28;20028;-71
2023/07/02 05:48:28;;;;;;;14.63;10.13;;;564.00;2432.00;;;;;;5071838;28;20044;-72
2023/07/02 05:50:54;;;;;;;15.80;10.20;;;564.00;2432.00;;;;;;5071665;28;20066;-71
2023/07/02 05:53:20;;;;;;;16.23;10.00;;;564.00;2432.00;;;;;;5072977;28;20029;-72
2023/07/02 05:55:46;;;;;;;16.45;10.50;;;564.10;2432.00;;;;;;5077747;28;20490;-71
2023/07/02 05:58:12;;;;;;;15.25;9.35;;;588.80;2432.00;;;;;;5075279;28;20511;-71
2023/07/02 06:00:41;;;;;;;15.07;9.75;;;588.90;2432.00;;;;;;5075094;28;20024;-71
2023/07/02 06:03:07;;;;;;;17.95;9.82;;;589.00;2432.00;;;;;;5081858;28;20389;-72
2023/07/02 06:05:32;;;;;;;13.40;8.85;;;589.10;2432.00;;;;;;5074186;28;20108;-73
2023/07/02 06:07:58;;;;;;;14.30;8.70;;;589.40;2432.00;;;;;;5083936;28;20035;-74
2023/07/02 06:10:24;;;;;;;14.48;10.30;;;589.30;2432.00;;;;;;5075875;28;20038;-73
2023/07/02 06:12:49;;;;;;;18.63;9.93;;;589.40;2432.00;;;;;;5077157;28;20025;-73
2023/07/02 06:15:15;;;;;;;17.88;9.55;;;589.50;2432.00;;;;;;5084968;28;20530;-73
2023/07/02 06:17:41;;;;;;;11.00;8.70;;;589.70;2432.00;;;;;;5073893;28;20035;-72
2023/07/02 06:20:07;;;;;;;13.18;8.85;;;614.40;2432.00;;;;;;5074760;28;20025;-72
2023/07/02 06:22:33;;;;;;;11.68;8.88;;;614.50;2432.00;;;;;;5079564;28;20017;-73
2023/07/02 06:24:59;;;;;;;14.05;9.65;;;614.60;2432.00;;;;;;5079924;28;20032;-72
2023/07/02 06:27:24;;;;;;;14.73;8.55;;;614.70;2432.00;;;;;;5079285;28;20033;-72
2023/07/02 06:29:51;;;;;;;14.13;8.73;;;614.80;2432.00;;;;;;5085138;28;20106;-73
2023/07/02 06:32:17;;;;;;;14.02;9.65;;;614.80;2432.00;;;;;;5082219;28;20032;-71
2023/07/02 06:34:43;;;;;;;9.48;7.47;;;614.80;2432.00;;;;;;5078702;28;20025;-72
2023/07/02 06:37:09;;;;;;;11.73;8.15;;;;;;;;;;5079419;28;20359;-72
2023/07/02 06:39:34;;;;;;;11.75;8.25;;;615.00;2432.00;;;;;;5078845;28;20462;-72
2023/07/02 06:42:00;;;;;;;10.88;8.18;;;615.20;2432.00;;;;;;5088457;28;20091;-74
2023/07/02 06:44:26;;;;;;;12.02;8.00;;;615.30;2432.00;;;;;;5079210;28;20381;-71
2023/07/02 06:46:51;;;;;;;13.57;7.82;;;640.10;2432.00;;;;;;5079944;28;20461;-70
2023/07/02 06:49:17;;;;;;;11.60;7.20;;;640.10;2432.00;;;;;;5080635;28;20115;-74
2023/07/02 06:51:43;;;;;;;12.38;8.25;;;640.10;2432.00;;;;;;5079165;28;20447;-71
2023/07/02 06:54:09;;;;;;;9.68;6.97;;;640.10;2432.00;;;;;;5085721;28;20028;-71
2023/07/02 06:56:34;;;;;;;10.27;6.95;;;640.30;2432.00;;;;;;5082702;28;20044;-73
2023/07/02 06:59:01;;;;;;;11.10;7.68;;;640.40;2432.00;;;;;;5090087;28;20036;-73
2023/07/02 07:01:26;;;;;;;12.27;7.72;;;640.50;2432.00;;;;;;5085579;28;20024;-72
2023/07/02 07:03:52;;;;;;;9.50;6.78;;;640.70;2432.00;;;;;;5087832;28;20475;-71
2023/07/02 07:06:18;;;;;;;8.52;6.22;;;640.70;2432.00;;;;;;5081461;28;20134;-71
2023/07/02 07:08:44;;;;;;;11.38;6.65;;;640.90;2432.00;;;;;;5082901;28;20492;-73
2023/07/02 07:11:09;;;;;;;10.82;6.20;;;665.70;2432.00;;;;;;5078017;28;20025;-71
2023/07/02 07:13:35;;;;;;;9.20;5.65;;;665.70;2432.00;;;;;;5083359;28;20161;-74
2023/07/02 07:16:01;;;;;;;8.75;6.10;;;665.70;2432.00;;;;;;5080678;28;20024;-74
2023/07/02 07:18:26;;;;;;;10.40;7.25;;;665.90;2432.00;;;;;;5082543;28;20095;-73
2023/07/02 07:20:55;;;;;;;9.20;5.45;;;666.00;2432.00;;;;;;5079577;28;20400;-71
2023/07/02 07:23:21;;;;;;;11.07;6.93;;;665.90;2432.00;;;;;;5079390;28;20384;-73
2023/07/02 07:25:47;;;;;;;11.60;6.85;;;666.20;2432.00;;;;;;5076914;28;20032;-73
2023/07/02 07:28:15;;;;;;;14.52;6.40;;;666.40;2432.00;;;;;;5062950;28;20121;-72
2023/07/02 07:30:41;;;;;;;8.23;5.88;;;666.20;2432.00;;;;;;5077822;28;20035;-75
2023/07/02 07:33:07;;;;;;;11.00;6.97;;;666.30;2432.00;;;;;;5076914;28;20032;-73
2023/07/02 07:35:33;;;;;;;11.45;6.38;;;666.20;2432.00;;;;;;5082167;28;20355;-73
2023/07/02 07:37:58;;;;;;;8.93;6.78;;;665.90;2432.00;;;;;;5082420;28;20074;-73
2023/07/02 07:40:24;;;;;;;13.10;7.22;;;665.70;2432.00;;;;;;5084622;28;20065;-73
2023/07/02 07:42:49;;;;;;;10.90;7.72;;;640.90;2432.00;;;;;;5083219;28;20492;-75
2023/07/02 07:45:15;;;;;;;10.13;7.35;;;640.80;2432.00;;;;;;5078053;28;20382;-74
2023/07/02 07:47:41;;;;;;;9.98;7.13;;;640.80;2432.00;;;;;;5075495;28;20051;-74
2023/07/02 07:50:10;;;;;;;12.32;7.88;;;640.90;2432.00;;;;;;5082435;28;20031;-74
2023/07/02 07:52:40;;;;;;;10.45;7.38;;;640.90;2432.00;;;;;;5075741;28;20044;-73
2023/07/02 07:55:06;;;;;;;9.63;7.82;;;665.70;2432.00;;;;;;5078150;28;20031;-74
2023/07/02 07:57:33;;;;;;;12.18;9.35;;;665.90;2432.00;;;;;;5079883;28;20079;-73
2023/07/02 07:59:59;;;;;;;10.20;6.57;;;666.20;2432.00;;;;;;5082642;28;20103;-73
2023/07/02 08:02:25;;;;;;;15.80;9.00;;;666.30;2432.00;;;;;;5081017;28;20111;-73
2023/07/02 08:04:50;;;;;;;9.45;7.03;;;666.30;2432.00;;;;;;5077109;28;20431;-74
2023/07/02 08:07:16;;;;;;;10.38;7.97;;;666.30;2432.00;;;;;;5083491;28;20024;-75
2023/07/02 08:09:42;;;;;;;10.18;8.23;;;666.40;2432.00;;;;;;5078298;28;20021;-72
2023/07/02 08:12:08;;;;;;;14.65;7.68;;;691.20;2432.00;;;;;;5091566;28;20061;-74
2023/07/02 08:14:37;;;;;;;9.38;6.90;;;691.30;2432.00;;;;;;5077304;28;20056;-76
2023/07/02 08:17:03;;;;;;;13.10;6.60;;;691.40;2432.00;;;;;;5080588;28;20393;-77
2023/07/02 08:19:29;;;;;;;10.35;6.85;;;691.30;2432.00;;;;;;5088207;28;20027;-73
2023/07/02 08:21:55;;;;;;;18.40;7.20;;;691.30;2432.00;;;;;;5078011;28;20033;-74
2023/07/02 08:24:20;;;;;;;13.13;7.78;;;691.50;2432.00;;;;;;5084497;28;20036;-73
2023/07/02 08:26:47;;;;;;;14.10;7.07;;;691.60;2432.00;;;;;;5079991;28;20108;-74
2023/07/02 08:29:13;;;;;;;10.18;7.35;;;691.60;2432.00;;;;;;5080996;28;20062;-75
2023/07/02 08:31:40;;;;;;;10.75;7.93;;;691.30;2432.00;;;;;;5078959;28;20025;-74
2023/07/02 08:34:06;;;;;;;14.23;8.60;;;691.30;2432.00;;;;;;5078931;28;20505;-72
2023/07/02 08:36:31;;;;;;;9.77;6.57;;;691.30;2432.00;;;;;;5078536;28;20024;-75
2023/07/02 08:38:57;;;;;;;8.77;6.15;;;691.30;2432.00;;;;;;5083016;28;20028;-75
2023/07/02 08:41:23;;;;;;;8.57;6.55;;;691.50;2432.00;;;;;;5076568;28;20486;-73
2023/07/02 08:43:51;;;;;;;9.40;6.75;;;691.50;2432.00;;;;;;5076480;28;20424;-78
2023/07/02 08:46:17;;;;;;;9.65;6.65;;;691.40;2432.00;;;;;;5074957;28;20024;-79
2023/07/02 08:48:42;;;;;;;7.53;6.22;;;691.60;2432.00;;;;;;5074156;28;20086;-78
2023/07/02 08:51:08;;;;;;;10.52;6.65;;;691.60;2432.00;;;;;;5080251;28;20056;-78
2023/07/02 08:53:34;;;;;;;9.65;6.95;;;691.70;2432.00;;;;;;5078170;28;20101;-75
2023/07/02 08:56:01;;;;;;;11.88;6.40;;;691.70;2432.00;;;;;;5076080;28;20490;-75
2023/07/02 08:58:27;;;;;;;9.27;6.80;;;691.60;2432.00;;;;;;5076947;28;20020;-75
2023/07/02 09:01:05;;;;;;;8.82;6.43;;;692.00;2432.00;;;;;;5076646;28;20459;-75
2023/07/02 09:03:31;;;;;;;8.77;6.47;;;716.80;2432.00;;;;;;5078742;28;20021;-74
2023/07/02 09:05:57;;;;;;;9.70;6.45;;;716.90;2432.00;;;;;;5074735;28;20386;-75
2023/07/02 09:08:27;;;;;;;9.40;6.90;;;716.90;2432.00;;;;;;5081036;28;20524;-74
2023/07/02 09:10:54;;;;;;;11.63;7.47;;;717.00;2432.00;;;;;;5084407;28;20385;-74
2023/07/02 09:13:20;;;;;;;10.38;7.43;;;717.00;2432.00;;;;;;5078183;28;20029;-74
2023/07/02 09:15:46;;;;;;;10.95;7.90;;;717.00;2432.00;;;;;;5076057;28;20023;-76
2023/07/02 09:18:19;;;;;;;10.27;7.40;;;717.20;2432.00;;;;;;5078735;28;20035;-76
2023/07/02 09:20:45;;;;;;;9.10;7.20;;;717.00;2406.40;;;;;;5078353;28;20032;-74
2023/07/02 09:23:11;;;;;;;10.98;7.57;;;717.00;2432.00;;;;;;5075965;28;20047;-75
2023/07/02 09:25:39;;;;;;;11.90;7.60;;;716.90;2432.00;;;;;;5074724;28;20089;-74
2023/07/02 09:28:22;;;;;;;10.73;6.40;;;716.90;2432.00;;;;;;5079640;28;20390;-74
2023/07/02 09:30:55;;;;;;;8.45;6.50;;;716.90;2329.60;;;;;;5076973;28;20023;-74
2023/07/02 09:33:28;;;;;;;8.15;6.47;;;716.80;2304.00;;;;;;5082645;28;20037;-74
2023/07/02 09:35:55;;;;;;;11.50;7.07;;;716.80;2432.00;;;;;;5077096;28;20023;-74
2023/07/02 09:38:21;;;;;;;10.35;6.90;;;716.80;2432.00;;;;;;5081356;28;20086;-74
2023/07/02 09:40:51;;;;;;;11.65;7.53;;;692.10;2432.00;;;;;;5076728;28;20025;-74
2023/07/02 09:43:18;;;;;;;11.55;6.95;;;716.80;2432.00;;;;;;5079530;28;20031;-74
2023/07/02 09:45:46;;;;;;;7.68;6.28;;;716.80;2432.00;;;;;;5081580;28;20038;-74
2023/07/02 09:48:16;;;;;;;9.75;7.18;;;716.80;2432.00;;;;;;5077916;28;20088;-74
2023/07/02 09:50:47;;;;;;;10.10;7.72;;;716.90;2432.00;;;;;;5074548;28;20020;-76
2023/07/02 09:53:13;;;;;;;9.98;7.18;;;717.20;2432.00;;;;;;5070913;28;20434;-78
2023/07/02 09:55:41;;;;;;;10.02;6.65;;;717.20;2432.00;;;;;;5076873;28;20068;-76
2023/07/02 09:58:07;;;;;;;11.48;7.53;;;717.40;2432.00;;;;;;5078092;28;20078;-75
2023/07/02 10:00:33;;;;;;;10.88;7.55;;;717.60;2380.80;;;;;;5073938;28;20017;-75
2023/07/02 10:03:00;;;;;;;10.27;7.50;;;742.40;2380.80;;;;;;5081928;28;20111;-75
2023/07/02 10:05:30;;;;;;;9.73;6.55;;;742.50;2380.80;;;;;;5076324;28;20025;-75
2023/07/02 10:08:13;;;;;;;10.48;6.50;;;742.70;2227.20;;;;;;5075951;28;20020;-74
2023/07/02 10:10:39;;;;;;;9.50;6.07;;;742.90;2176.00;;;;;;5078677;28;20096;-74
2023/07/02 10:13:05;;;;;;;9.73;5.30;;;742.90;1996.80;;;;;;5078549;28;20474;-75
2023/07/02 10:15:31;;;;;;;6.82;5.07;;;743.00;1868.80;;;;;;5079441;28;20024;-75
2023/07/02 10:17:57;;;;;;;7.05;5.20;;;743.10;1817.60;;;;;;5082190;28;20025;-76
2023/07/02 10:20:41;;;;;;;7.70;5.63;;;743.10;1817.60;;;;;;5073200;28;20020;-74
2023/07/02 10:23:09;;;;;;;9.23;5.22;;;743.10;1868.80;;;;;;5067901;28;20119;-77
2023/07/02 10:25:37;;;;;;;6.82;5.60;;;743.30;1868.80;;;;;;5078030;28;20126;-76
2023/07/02 10:28:26;;;;;;;9.88;5.47;;;768.00;1868.80;;;;;;5082763;28;20063;-74
2023/07/02 10:30:53;;;;;;;9.18;6.40;;;768.10;1843.20;;;;;;5076748;28;20371;-74
2023/07/02 10:33:19;;;;;;;7.22;5.13;;;768.20;1894.40;;;;;;5082100;28;20032;-73
2023/07/02 10:35:49;;;;;;;11.95;6.72;;;768.40;1817.60;;;;;;5072754;28;20016;-78
2023/07/02 10:38:25;;;;;;;9.20;6.45;;;768.10;1792.00;;;;;;5077824;28;20029;-75
2023/07/02 10:40:58;;;;;;;9.50;6.28;;;743.00;1868.80;;;;;;5081062;28;20032;-73
2023/07/02 10:43:31;;;;;;;8.20;5.47;;;768.00;1843.20;;;;;;5078205;28;20024;-76
2023/07/02 10:46:02;;;;;;;9.88;6.03;;;768.20;1792.00;;;;;;5080210;28;20012;-78
2023/07/02 10:48:28;;;;;;;8.98;5.05;;;768.50;1792.00;;;;;;5074883;28;20023;-73
2023/07/02 10:50:54;;;;;;;9.23;6.32;;;768.50;1792.00;;;;;;5081608;28;20428;-73
2023/07/02 10:53:20;;;;;;;8.50;5.53;;;768.70;1715.20;;;;;;5075542;28;20028;-74
2023/07/02 10:55:52;;;;;;;8.98;6.25;;;768.60;1740.80;;;;;;5085593;28;20528;-74
2023/07/02 10:58:18;;;;;;;10.48;5.72;;;768.80;1792.00;;;;;;5078822;28;20561;-74
2023/07/02 11:00:48;;;;;;;7.75;5.65;;;793.60;1740.80;;;;;;5077539;28;20024;-74
2023/07/02 11:03:22;;;;;;;8.30;5.88;;;768.50;1740.80;;;;;;5077040;28;20155;-73
2023/07/02 11:05:49;;;;;;;7.93;5.80;;;768.70;1817.60;;;;;;5071805;28;20478;-70
2023/07/02 11:08:15;;;;;;;13.60;9.40;;;768.70;1843.20;;;;;;5076062;28;20098;-72
2023/07/02 11:10:41;;;;;;;9.65;6.57;;;768.80;1920.00;;;;;;5082982;28;20036;-76
2023/07/02 11:13:17;;;;;;;10.80;6.35;;;793.70;1945.60;;;;;;5078632;28;20044;-74
2023/07/02 11:15:45;;;;;;;9.45;6.20;;;768.30;1945.60;;;;;;5070763;28;20028;-71
2023/07/02 11:18:11;;;;;;;11.52;6.70;;;768.20;1996.80;;;;;;5080931;28;20031;-73
2023/07/02 11:20:39;;;;;;;8.48;6.03;;;768.00;2073.60;;;;;;5084085;28;20031;-72
2023/07/02 11:23:16;;;;;;;9.23;6.30;;;768.10;1971.20;;;;;;5079401;28;20035;-71
2023/07/02 11:25:41;;;;;;;10.23;6.35;;;768.50;2022.40;;;;;;5079477;28;20035;-72
2023/07/02 11:28:07;;;;;;;14.30;7.15;;;768.70;2073.60;;;;;;5080768;28;20028;-72
2023/07/02 11:30:35;;;;;;;9.95;7.72;;;768.60;2022.40;;;;;;5080351;28;20082;-74
2023/07/02 11:33:01;;;;;;;10.50;6.88;;;768.80;2099.20;;;;;;5086511;28;20037;-73
2023/07/02 11:35:36;;;;;;;9.10;6.95;;;768.90;2048.00;;;;;;5082089;28;20374;-72
2023/07/02 11:38:02;;;;;;;11.82;7.47;;;793.70;2048.00;;;;;;5086441;28;20036;-71
2023/07/02 11:40:27;;;;;;;10.68;7.72;;;793.60;2048.00;;;;;;5086409;28;20026;-72
2023/07/02 11:42:53;;;;;;;11.93;7.60;;;793.60;2022.40;;;;;;5079105;28;20523;-72
2023/07/02 11:45:19;;;;;;;11.57;7.57;;;793.70;1996.80;;;;;;5080132;28;20028;-72
2023/07/02 11:47:44;;;;;;;13.88;8.25;;;793.60;1996.80;;;;;;5077482;28;20059;-76
2023/07/02 11:50:10;;;;;;;12.05;7.78;;;793.70;1945.60;;;;;;5079044;28;20017;-75
2023/07/02 11:52:36;;;;;;;12.05;7.57;;;793.60;1996.80;;;;;;5062025;28;20057;-73
2023/07/02 11:55:02;;;;;;;11.63;7.53;;;768.50;1996.80;;;;;;5084911;28;20031;-71
2023/07/02 11:57:28;;;;;;;9.23;6.40;;;768.60;1945.60;;;;;;5086471;28;20115;-72
2023/07/02 11:59:53;;;;;;;11.80;8.30;;;768.40;1996.80;;;;;;5081498;28;20024;-72
2023/07/02 12:02:19;;;;;;;16.67;7.40;;;743.30;2073.60;;;;;;5081763;28;20449;-74
2023/07/02 12:04:45;;;;;;;9.05;7.20;;;742.90;2150.40;;;;;;5082560;28;20020;-73
2023/07/02 12:07:11;;;;;;;11.73;7.65;;;742.70;2176.00;;;;;;5081357;28;20051;-72
2023/07/02 12:09:37;;;;;;;12.30;7.18;;;743.10;2150.40;;;;;;5078333;28;20024;-73